KDCU

Details ICAO KDCU
Name PRYOR FLD RGNL
Region United States
Timezone America/Chicago (UTC-5.0)
Plans Departing 3
Arriving 6
Stats Elevation 592 ft / 180 m (AMSL)
Location 34.654052° -86.945164°
Runways 1
Magnetic Variation 3.507° W
Sunrise 2018-05-27 10:39:16 UTC / 2018-05-27 05:39:16 Local
Sunset 2018-05-28 00:53:33 UTC / 2018-05-27 19:53:33 Local
Advertisement - Login to hide

Runways

ID Width Length Bearing (true) Bearing (mag) Surface Threshold Offset Overrun Length
18 100 ft / 30 m 6,121 ft / 1,866 m 180.00° 183.51° Asphalt 0 ft / 0 m 0 ft / 0 m
36 100 ft / 30 m 6,121 ft / 1,866 m 0.00° 3.51° Asphalt 0 ft / 0 m 0 ft / 0 m

Map

Weather


0- 5 10 15 20 25 30 35+ Temperature / ° C

Clouds and Precipitation
Forecast for 2018-05-27 12:00 UTC. Updated an hour ago

Ground ~20,000 ft ~40,000 ft Winds

METAR

KDCU 271153Z AUTO 10003KT 9SM CLR 22/21 A2994 RMK AO2 SLP132 T02170206 10222 20200 53010

TAF

Not found

Frequencies

Recorded 118.37 MHz ASOS
Approach 118.05 MHz HUNTSVILLE APP/DEP
Unicom 123.07 MHz CTAF/UNICOM
Warning: Do not use this data for real-world aviation or navigation. No guarantee of current accuracy is given.